DAL2198 KLAX-KMSP
Flight info
| Callsign | DAL2198 |
|---|---|
| Flight time | N/A |
| Altitude | 33000 |
| Route | ORCKA5 LAS BAWER LARVE EKR BFF KD78A KP81C SSWAN TORGY4 |
| Aircraft | A321/M-SDE3FGHIRWY/LB1 |
Departure
| Time | N/A |
|---|---|
| Airport | Los Angeles International Airport (KLAX) |
Arrival
| Time | 2026-05-06 03:45 |
|---|---|
| Airport | Minneapolis–Saint Paul International Airport / Wold–Chamberlain Field (KMSP) |
| Time | Latitude | Longitude | Altitude | Speed | Heading |
|---|---|---|---|---|---|
| 2026-05-06 03:33 | 44.79383 | -93.70431 | 14967 ft | 366 kts | 71° |
| 2026-05-06 03:33 | 44.80144 | -93.67011 | 14566 ft | 363 kts | 71° |
| 2026-05-06 03:33 | 44.80889 | -93.63648 | 14274 ft | 351 kts | 71° |
| 2026-05-06 03:33 | 44.81590 | -93.60461 | 14067 ft | 333 kts | 71° |
| 2026-05-06 03:34 | 44.82261 | -93.57403 | 13593 ft | 333 kts | 71° |
| 2026-05-06 03:34 | 44.82969 | -93.54198 | 12735 ft | 346 kts | 71° |
| 2026-05-06 03:34 | 44.83683 | -93.50957 | 12216 ft | 346 kts | 71° |
| 2026-05-06 03:34 | 44.84390 | -93.47722 | 11698 ft | 346 kts | 72° |
| 2026-05-06 03:35 | 44.84717 | -93.44304 | 10714 ft | 357 kts | 91° |
| 2026-05-06 03:35 | 44.84266 | -93.40907 | 9759 ft | 351 kts | 110° |
| 2026-05-06 03:35 | 44.83149 | -93.37889 | 8827 ft | 347 kts | 122° |
| 2026-05-06 03:35 | 44.81891 | -93.35041 | 8312 ft | 346 kts | 122° |
| 2026-05-06 03:36 | 44.80654 | -93.32205 | 8195 ft | 333 kts | 121° |
| 2026-05-06 03:36 | 44.79458 | -93.29444 | 8085 ft | 323 kts | 121° |
| 2026-05-06 03:36 | 44.78308 | -93.26781 | 7953 ft | 311 kts | 121° |
| 2026-05-06 03:36 | 44.77224 | -93.24276 | 7967 ft | 299 kts | 121° |
| 2026-05-06 03:37 | 44.76141 | -93.21788 | 7968 ft | 297 kts | 121° |
| 2026-05-06 03:37 | 44.75059 | -93.19298 | 7914 ft | 298 kts | 121° |
| 2026-05-06 03:37 | 44.73989 | -93.16806 | 7685 ft | 295 kts | 121° |
| 2026-05-06 03:37 | 44.72947 | -93.14363 | 7487 ft | 294 kts | 121° |
| 2026-05-06 03:38 | 44.71897 | -93.11894 | 7291 ft | 294 kts | 121° |
| 2026-05-06 03:38 | 44.70853 | -93.09439 | 7096 ft | 289 kts | 121° |
| 2026-05-06 03:38 | 44.69872 | -93.07022 | 6881 ft | 276 kts | 112° |
| 2026-05-06 03:38 | 44.69451 | -93.04455 | 6503 ft | 267 kts | 88° |
| 2026-05-06 03:39 | 44.69719 | -93.01929 | 6124 ft | 258 kts | 66° |
| 2026-05-06 03:39 | 44.70549 | -92.99786 | 5789 ft | 248 kts | 46° |
| 2026-05-06 03:39 | 44.71802 | -92.98196 | 5488 ft | 241 kts | 27° |
| 2026-05-06 03:39 | 44.73325 | -92.97275 | 5164 ft | 235 kts | 10° |
| 2026-05-06 03:40 | 44.74931 | -92.97095 | 4840 ft | 230 kts | 352° |
| 2026-05-06 03:40 | 44.76467 | -92.97626 | 4535 ft | 226 kts | 335° |
| 2026-05-06 03:40 | 44.77795 | -92.98778 | 4249 ft | 224 kts | 319° |
| 2026-05-06 03:40 | 44.78808 | -93.00442 | 3954 ft | 224 kts | 303° |
| 2026-05-06 03:41 | 44.79611 | -93.02311 | 3664 ft | 223 kts | 303° |
| 2026-05-06 03:41 | 44.80412 | -93.04157 | 3350 ft | 217 kts | 303° |
| 2026-05-06 03:41 | 44.81180 | -93.05920 | 3060 ft | 209 kts | 303° |
| 2026-05-06 03:41 | 44.81915 | -93.07610 | 2833 ft | 195 kts | 304° |
| 2026-05-06 03:42 | 44.82601 | -93.09188 | 2583 ft | 177 kts | 304° |
| 2026-05-06 03:42 | 44.83209 | -93.10591 | 2346 ft | 156 kts | 304° |
| 2026-05-06 03:42 | 44.83746 | -93.11831 | 2137 ft | 144 kts | 305° |
| 2026-05-06 03:42 | 44.84260 | -93.13013 | 1939 ft | 140 kts | 305° |
| 2026-05-06 03:43 | 44.84770 | -93.14170 | 1767 ft | 139 kts | 305° |
| 2026-05-06 03:43 | 44.85264 | -93.15332 | 1651 ft | 138 kts | 303° |
| 2026-05-06 03:43 | 44.85597 | -93.16118 | 1546 ft | 138 kts | 304° |
| 2026-05-06 03:43 | 44.86104 | -93.17263 | 1370 ft | 138 kts | 304° |
| 2026-05-06 03:44 | 44.86602 | -93.18402 | 1193 ft | 137 kts | 304° |
| 2026-05-06 03:44 | 44.87100 | -93.19557 | 1007 ft | 137 kts | 304° |
| 2026-05-06 03:44 | 44.87599 | -93.20691 | 828 ft | 132 kts | 305° |
| 2026-05-06 03:44 | 44.88001 | -93.21617 | 822 ft | 75 kts | 301° |
| 2026-05-06 03:45 | 44.88190 | -93.22051 | 826 ft | 25 kts | 301° |
| 2026-05-06 03:45 | 44.88275 | -93.22114 | 824 ft | 12 kts | 28° |
| 2026-05-06 03:45 | 44.88301 | -93.22088 | 825 ft | 3 kts | 40° |
| 2026-05-06 03:45 | 44.88310 | -93.22060 | 825 ft | 6 kts | 83° |
| 2026-05-06 03:46 | 44.88282 | -93.21970 | 825 ft | 15 kts | 121° |
| 2026-05-06 03:46 | 44.88227 | -93.21845 | 825 ft | 14 kts | 121° |
| 2026-05-06 03:46 | 44.88176 | -93.21727 | 825 ft | 13 kts | 121° |
| 2026-05-06 03:46 | 44.88130 | -93.21621 | 822 ft | 12 kts | 121° |
| 2026-05-06 03:47 | 44.88090 | -93.21528 | 825 ft | 10 kts | 122° |
| 2026-05-06 03:47 | 44.88054 | -93.21447 | 824 ft | 9 kts | 121° |
| 2026-05-06 03:47 | 44.88009 | -93.21343 | 823 ft | 15 kts | 121° |
| 2026-05-06 03:47 | 44.87959 | -93.21226 | 822 ft | 13 kts | 121° |
| 2026-05-06 03:48 | 44.87915 | -93.21123 | 825 ft | 11 kts | 121° |
| 2026-05-06 03:48 | 44.87878 | -93.21037 | 826 ft | 9 kts | 121° |
| 2026-05-06 03:48 | 44.87849 | -93.20968 | 826 ft | 7 kts | 121° |
| 2026-05-06 03:48 | 44.87841 | -93.20907 | 826 ft | 6 kts | 73° |
| 2026-05-06 03:49 | 44.87881 | -93.20852 | 823 ft | 13 kts | 34° |
| 2026-05-06 03:49 | 44.87952 | -93.20804 | 825 ft | 7 kts | 25° |
| 2026-05-06 03:49 | 44.87969 | -93.20793 | 823 ft | 1 kts | 25° |
| 2026-05-06 03:49 | 44.87973 | -93.20790 | 824 ft | 0 kts | 25° |
| 2026-05-06 03:50 | 44.87975 | -93.20789 | 825 ft | 0 kts | 25° |